RKPC/CJU METAR and TAF weather

Enter ICAO airport designator
Station Type Date Time Source
RKPC METAR 2020/01/21 15:00 UTC NOAA

RKPC 211500Z 22008KT CAVOK 08/02 Q1027 NOSIG


Station Type Date Time Source
RKPC Decoded METAR 2020/01/21 15:00 UTC NOAA

Cheju International Airport, Korea, South (RKPC) 33-30N 126-30E 28M
Jan 21, 2020 - 10:00 AM EST / 2020.01.21 1500 UTC
Wind: from the SW (220 degrees) at 9 MPH (8 KT):0
Visibility: greater than 7 mile(s):0
Temperature: 46 F (8 C)
Dew Point: 35 F (2 C)
Relative Humidity: 65%
Pressure (altimeter): 30.33 in. Hg (1027 hPa)
ob: RKPC 211500Z 22008KT CAVOK 08/02 Q1027 NOSIG
cycle: 15

Station Type Date Time Source
RKPC TAF 2020/01/21 12:42 UTC NOAA

TAF TAF RKPC 211100Z 2112/2218 18006KT CAVOK TN06/2118Z TX13/2206Z
BECMG 2114/2115 9999 SCT030 BKN100
BECMG 2121/2122 6000 -RA SCT010 BKN030 OVC100
BECMG 2203/2204 10010KT

Example: see airport list